METAR Formatted Surface Weather Observation
Issued by NWS

Home | Current Version | Previous Version | Text Only | Print | Product List | Glossary On
Versions: 1 2
402
SPZS31 NSTU 271833
MTRSPP
SPECI NSTU 271834Z 15008KT 1SM SHRA BKN012 OVC038 26/25 A2998=


USA.gov is the U.S. government's official web portal to all federal, state and local government web resources and services.